sensor_id;sensor_type;location;lat;lon;timestamp;temperature;humidity
15384;DHT22;7790;53.022;12.968;2023-05-10T00:00:27;18.80;45.00
15384;DHT22;7790;53.022;12.968;2023-05-10T00:04:28;18.80;45.00
15384;DHT22;7790;53.022;12.968;2023-05-10T00:08:29;18.80;44.80
15384;DHT22;7790;53.022;12.968;2023-05-10T00:12:30;18.80;45.10
15384;DHT22;7790;53.022;12.968;2023-05-10T00:16:31;18.80;44.90
15384;DHT22;7790;53.022;12.968;2023-05-10T00:20:32;18.80;44.90
15384;DHT22;7790;53.022;12.968;2023-05-10T00:24:33;18.80;45.10
15384;DHT22;7790;53.022;12.968;2023-05-10T00:28:33;18.80;45.10
15384;DHT22;7790;53.022;12.968;2023-05-10T00:32:34;18.80;45.00
15384;DHT22;7790;53.022;12.968;2023-05-10T00:36:35;18.70;44.90
15384;DHT22;7790;53.022;12.968;2023-05-10T00:40:36;18.80;45.00
15384;DHT22;7790;53.022;12.968;2023-05-10T00:44:41;18.70;45.00
15384;DHT22;7790;53.022;12.968;2023-05-10T00:48:43;18.70;44.90
15384;DHT22;7790;53.022;12.968;2023-05-10T00:52:45;18.70;45.00
15384;DHT22;7790;53.022;12.968;2023-05-10T00:56:46;18.70;45.00
15384;DHT22;7790;53.022;12.968;2023-05-10T01:00:50;18.70;44.90
15384;DHT22;7790;53.022;12.968;2023-05-10T01:04:53;18.70;45.00
15384;DHT22;7790;53.022;12.968;2023-05-10T01:08:55;18.70;44.90
15384;DHT22;7790;53.022;12.968;2023-05-10T01:12:56;18.70;45.00
15384;DHT22;7790;53.022;12.968;2023-05-10T01:16:58;18.70;44.90
15384;DHT22;7790;53.022;12.968;2023-05-10T01:21:23;18.70;44.90
15384;DHT22;7790;53.022;12.968;2023-05-10T01:34:03;18.70;44.90
15384;DHT22;7790;53.022;12.968;2023-05-10T01:42:35;18.70;45.00
15384;DHT22;7790;53.022;12.968;2023-05-10T01:46:38;18.60;44.90
15384;DHT22;7790;53.022;12.968;2023-05-10T01:50:42;18.60;44.90
15384;DHT22;7790;53.022;12.968;2023-05-10T01:54:55;18.60;44.80
15384;DHT22;7790;53.022;12.968;2023-05-10T01:59:04;18.60;44.80
15384;DHT22;7790;53.022;12.968;2023-05-10T02:03:07;18.70;45.00
15384;DHT22;7790;53.022;12.968;2023-05-10T02:07:09;18.90;45.00
15384;DHT22;7790;53.022;12.968;2023-05-10T02:11:13;19.00;45.00
15384;DHT22;7790;53.022;12.968;2023-05-10T02:15:18;19.20;45.00
15384;DHT22;7790;53.022;12.968;2023-05-10T02:19:21;19.30;44.80
15384;DHT22;7790;53.022;12.968;2023-05-10T02:23:24;19.40;44.70
15384;DHT22;7790;53.022;12.968;2023-05-10T02:27:27;19.60;44.60
15384;DHT22;7790;53.022;12.968;2023-05-10T02:31:29;19.60;44.50
15384;DHT22;7790;53.022;12.968;2023-05-10T02:35:32;19.70;44.70
15384;DHT22;7790;53.022;12.968;2023-05-10T02:39:34;19.70;44.70
15384;DHT22;7790;53.022;12.968;2023-05-10T02:43:37;19.70;44.70
15384;DHT22;7790;53.022;12.968;2023-05-10T02:47:40;19.80;44.80
15384;DHT22;7790;53.022;12.968;2023-05-10T02:51:47;19.70;44.80
15384;DHT22;7790;53.022;12.968;2023-05-10T02:55:51;19.80;44.90
15384;DHT22;7790;53.022;12.968;2023-05-10T02:59:53;19.80;44.70
15384;DHT22;7790;53.022;12.968;2023-05-10T03:03:54;19.90;44.50
15384;DHT22;7790;53.022;12.968;2023-05-10T03:07:55;19.90;44.50
15384;DHT22;7790;53.022;12.968;2023-05-10T03:16:16;19.90;44.70
15384;DHT22;7790;53.022;12.968;2023-05-10T03:20:25;19.90;44.80
15384;DHT22;7790;53.022;12.968;2023-05-10T03:24:28;19.90;44.80
15384;DHT22;7790;53.022;12.968;2023-05-10T03:28:31;19.90;44.90
15384;DHT22;7790;53.022;12.968;2023-05-10T03:32:34;20.00;44.80
15384;DHT22;7790;53.022;12.968;2023-05-10T03:36:36;20.00;44.80
15384;DHT22;7790;53.022;12.968;2023-05-10T03:40:37;20.00;44.80
15384;DHT22;7790;53.022;12.968;2023-05-10T03:44:41;20.00;44.70
15384;DHT22;7790;53.022;12.968;2023-05-10T03:48:43;19.90;44.70
15384;DHT22;7790;53.022;12.968;2023-05-10T03:52:43;19.90;44.80
15384;DHT22;7790;53.022;12.968;2023-05-10T03:56:45;19.90;44.60
15384;DHT22;7790;53.022;12.968;2023-05-10T04:00:47;20.00;44.60
15384;DHT22;7790;53.022;12.968;2023-05-10T04:04:49;20.00;44.50
15384;DHT22;7790;53.022;12.968;2023-05-10T04:08:50;20.00;44.50
15384;DHT22;7790;53.022;12.968;2023-05-10T04:12:52;19.90;44.50
15384;DHT22;7790;53.022;12.968;2023-05-10T04:16:55;19.90;44.50
15384;DHT22;7790;53.022;12.968;2023-05-10T04:20:56;19.90;44.50
15384;DHT22;7790;53.022;12.968;2023-05-10T04:24:57;20.00;44.50
15384;DHT22;7790;53.022;12.968;2023-05-10T04:28:58;19.90;44.30
15384;DHT22;7790;53.022;12.968;2023-05-10T04:32:59;20.00;44.20
15384;DHT22;7790;53.022;12.968;2023-05-10T04:37:00;20.00;44.30
15384;DHT22;7790;53.022;12.968;2023-05-10T04:41:08;20.00;44.10
15384;DHT22;7790;53.022;12.968;2023-05-10T04:45:09;20.00;44.20
15384;DHT22;7790;53.022;12.968;2023-05-10T04:49:10;19.90;44.10
15384;DHT22;7790;53.022;12.968;2023-05-10T04:53:12;19.90;44.10
15384;DHT22;7790;53.022;12.968;2023-05-10T04:57:13;20.00;44.10
15384;DHT22;7790;53.022;12.968;2023-05-10T05:01:14;20.00;43.90
15384;DHT22;7790;53.022;12.968;2023-05-10T05:05:15;20.10;43.90
15384;DHT22;7790;53.022;12.968;2023-05-10T05:09:16;20.00;43.90
15384;DHT22;7790;53.022;12.968;2023-05-10T05:13:17;20.00;43.90
15384;DHT22;7790;53.022;12.968;2023-05-10T05:17:17;20.00;44.20
15384;DHT22;7790;53.022;12.968;2023-05-10T05:21:19;20.00;44.30
15384;DHT22;7790;53.022;12.968;2023-05-10T05:25:20;19.90;44.40
15384;DHT22;7790;53.022;12.968;2023-05-10T05:29:21;19.90;44.40
15384;DHT22;7790;53.022;12.968;2023-05-10T05:33:22;19.90;44.40
15384;DHT22;7790;53.022;12.968;2023-05-10T05:37:22;19.90;44.40
15384;DHT22;7790;53.022;12.968;2023-05-10T05:41:24;19.90;44.60
15384;DHT22;7790;53.022;12.968;2023-05-10T05:45:25;19.80;44.70
15384;DHT22;7790;53.022;12.968;2023-05-10T05:49:26;19.80;44.80
15384;DHT22;7790;53.022;12.968;2023-05-10T05:53:27;19.80;44.80
15384;DHT22;7790;53.022;12.968;2023-05-10T05:57:28;19.70;44.90
15384;DHT22;7790;53.022;12.968;2023-05-10T06:01:29;19.70;45.40
15384;DHT22;7790;53.022;12.968;2023-05-10T06:05:30;19.70;45.00
15384;DHT22;7790;53.022;12.968;2023-05-10T06:09:30;19.60;45.00
15384;DHT22;7790;53.022;12.968;2023-05-10T06:13:32;19.40;44.20
15384;DHT22;7790;53.022;12.968;2023-05-10T06:17:33;19.30;44.70
15384;DHT22;7790;53.022;12.968;2023-05-10T06:21:34;19.20;45.10
15384;DHT22;7790;53.022;12.968;2023-05-10T06:25:35;19.10;45.40
15384;DHT22;7790;53.022;12.968;2023-05-10T06:29:36;19.00;42.30
15384;DHT22;7790;53.022;12.968;2023-05-10T06:33:37;18.30;41.40
15384;DHT22;7790;53.022;12.968;2023-05-10T06:37:37;18.20;42.90
15384;DHT22;7790;53.022;12.968;2023-05-10T06:41:38;18.10;42.60
15384;DHT22;7790;53.022;12.968;2023-05-10T06:45:39;18.10;41.70
15384;DHT22;7790;53.022;12.968;2023-05-10T06:49:41;18.00;42.50
15384;DHT22;7790;53.022;12.968;2023-05-10T06:53:42;17.80;42.40
15384;DHT22;7790;53.022;12.968;2023-05-10T06:57:43;18.10;42.20
15384;DHT22;7790;53.022;12.968;2023-05-10T07:01:43;18.30;41.70
15384;DHT22;7790;53.022;12.968;2023-05-10T07:05:44;18.30;41.90
15384;DHT22;7790;53.022;12.968;2023-05-10T07:09:45;18.40;41.90
15384;DHT22;7790;53.022;12.968;2023-05-10T07:13:46;18.40;42.60
15384;DHT22;7790;53.022;12.968;2023-05-10T07:17:47;18.40;41.60
15384;DHT22;7790;53.022;12.968;2023-05-10T07:21:48;18.40;41.60
15384;DHT22;7790;53.022;12.968;2023-05-10T07:25:50;18.30;41.80
15384;DHT22;7790;53.022;12.968;2023-05-10T07:29:52;18.30;41.70
15384;DHT22;7790;53.022;12.968;2023-05-10T07:33:53;18.30;41.40
15384;DHT22;7790;53.022;12.968;2023-05-10T07:37:54;18.30;41.50
15384;DHT22;7790;53.022;12.968;2023-05-10T07:41:55;18.30;41.80
15384;DHT22;7790;53.022;12.968;2023-05-10T07:45:56;18.40;42.10
15384;DHT22;7790;53.022;12.968;2023-05-10T07:49:58;18.30;41.90
15384;DHT22;7790;53.022;12.968;2023-05-10T07:53:58;18.50;41.40
15384;DHT22;7790;53.022;12.968;2023-05-10T07:57:59;18.60;41.50
15384;DHT22;7790;53.022;12.968;2023-05-10T08:02:01;18.70;41.50
15384;DHT22;7790;53.022;12.968;2023-05-10T08:06:03;18.70;41.60
15384;DHT22;7790;53.022;12.968;2023-05-10T08:10:04;18.80;41.40
15384;DHT22;7790;53.022;12.968;2023-05-10T08:14:05;18.80;41.40
15384;DHT22;7790;53.022;12.968;2023-05-10T08:18:06;19.00;41.50
15384;DHT22;7790;53.022;12.968;2023-05-10T08:22:07;19.10;41.20
15384;DHT22;7790;53.022;12.968;2023-05-10T08:26:08;19.10;41.00
15384;DHT22;7790;53.022;12.968;2023-05-10T08:30:10;19.10;41.00
15384;DHT22;7790;53.022;12.968;2023-05-10T08:34:11;19.10;41.20
15384;DHT22;7790;53.022;12.968;2023-05-10T08:38:11;19.10;41.40
15384;DHT22;7790;53.022;12.968;2023-05-10T08:42:16;19.30;41.50
15384;DHT22;7790;53.022;12.968;2023-05-10T08:46:20;19.40;41.20
15384;DHT22;7790;53.022;12.968;2023-05-10T08:50:22;19.40;40.90
15384;DHT22;7790;53.022;12.968;2023-05-10T08:54:23;19.40;41.20
15384;DHT22;7790;53.022;12.968;2023-05-10T08:58:25;19.40;41.40
15384;DHT22;7790;53.022;12.968;2023-05-10T09:02:27;19.50;41.80
15384;DHT22;7790;53.022;12.968;2023-05-10T09:06:28;19.60;41.60
15384;DHT22;7790;53.022;12.968;2023-05-10T09:10:29;19.60;41.50
15384;DHT22;7790;53.022;12.968;2023-05-10T09:14:32;19.70;41.10
15384;DHT22;7790;53.022;12.968;2023-05-10T09:18:34;19.70;40.90
15384;DHT22;7790;53.022;12.968;2023-05-10T09:22:35;19.70;40.80
15384;DHT22;7790;53.022;12.968;2023-05-10T09:26:45;19.80;40.50
15384;DHT22;7790;53.022;12.968;2023-05-10T09:30:53;19.70;41.10
15384;DHT22;7790;53.022;12.968;2023-05-10T09:34:54;19.80;41.40
15384;DHT22;7790;53.022;12.968;2023-05-10T09:38:55;19.80;40.70
15384;DHT22;7790;53.022;12.968;2023-05-10T09:43:06;19.80;40.80
15384;DHT22;7790;53.022;12.968;2023-05-10T09:47:08;19.90;40.90
15384;DHT22;7790;53.022;12.968;2023-05-10T09:51:08;20.00;40.60
15384;DHT22;7790;53.022;12.968;2023-05-10T09:55:10;20.00;40.00
15384;DHT22;7790;53.022;12.968;2023-05-10T09:59:12;20.10;39.80
15384;DHT22;7790;53.022;12.968;2023-05-10T10:03:15;20.00;40.10
15384;DHT22;7790;53.022;12.968;2023-05-10T10:07:22;20.00;40.70
15384;DHT22;7790;53.022;12.968;2023-05-10T10:11:24;20.10;40.60
15384;DHT22;7790;53.022;12.968;2023-05-10T10:15:25;20.10;40.60
15384;DHT22;7790;53.022;12.968;2023-05-10T10:19:26;20.10;41.00
15384;DHT22;7790;53.022;12.968;2023-05-10T10:23:27;19.80;42.40
15384;DHT22;7790;53.022;12.968;2023-05-10T10:32:07;19.60;43.20
15384;DHT22;7790;53.022;12.968;2023-05-10T10:36:12;19.60;43.60
15384;DHT22;7790;53.022;12.968;2023-05-10T10:40:33;19.60;43.80
15384;DHT22;7790;53.022;12.968;2023-05-10T10:44:36;19.60;43.90
15384;DHT22;7790;53.022;12.968;2023-05-10T10:48:38;19.60;44.10
15384;DHT22;7790;53.022;12.968;2023-05-10T10:52:40;19.60;44.00
15384;DHT22;7790;53.022;12.968;2023-05-10T10:56:44;19.50;44.20
15384;DHT22;7790;53.022;12.968;2023-05-10T11:00:45;19.50;44.30
15384;DHT22;7790;53.022;12.968;2023-05-10T11:04:46;19.50;44.40
15384;DHT22;7790;53.022;12.968;2023-05-10T11:08:47;19.60;44.60
15384;DHT22;7790;53.022;12.968;2023-05-10T11:13:01;19.60;44.40
15384;DHT22;7790;53.022;12.968;2023-05-10T11:17:26;19.60;44.30
15384;DHT22;7790;53.022;12.968;2023-05-10T11:21:28;19.50;45.20
15384;DHT22;7790;53.022;12.968;2023-05-10T11:25:29;19.40;45.10
15384;DHT22;7790;53.022;12.968;2023-05-10T11:29:30;19.40;45.10
15384;DHT22;7790;53.022;12.968;2023-05-10T11:33:31;19.40;45.30
15384;DHT22;7790;53.022;12.968;2023-05-10T11:37:42;19.50;45.40
15384;DHT22;7790;53.022;12.968;2023-05-10T11:41:48;19.50;45.10
15384;DHT22;7790;53.022;12.968;2023-05-10T11:45:49;19.50;45.50
15384;DHT22;7790;53.022;12.968;2023-05-10T11:49:51;19.40;45.50
15384;DHT22;7790;53.022;12.968;2023-05-10T11:53:56;19.40;45.60
15384;DHT22;7790;53.022;12.968;2023-05-10T11:58:00;19.50;45.70
15384;DHT22;7790;53.022;12.968;2023-05-10T12:02:02;19.70;45.20
15384;DHT22;7790;53.022;12.968;2023-05-10T12:06:04;19.50;44.70
15384;DHT22;7790;53.022;12.968;2023-05-10T12:10:14;19.50;45.10
15384;DHT22;7790;53.022;12.968;2023-05-10T12:14:15;19.50;45.40
15384;DHT22;7790;53.022;12.968;2023-05-10T12:18:23;19.40;45.40
15384;DHT22;7790;53.022;12.968;2023-05-10T12:22:27;19.40;45.60
15384;DHT22;7790;53.022;12.968;2023-05-10T12:26:29;19.40;45.60
15384;DHT22;7790;53.022;12.968;2023-05-10T12:30:31;19.40;45.70
15384;DHT22;7790;53.022;12.968;2023-05-10T12:34:34;19.40;45.80
15384;DHT22;7790;53.022;12.968;2023-05-10T12:38:38;19.40;45.90
15384;DHT22;7790;53.022;12.968;2023-05-10T12:42:39;19.40;46.00
15384;DHT22;7790;53.022;12.968;2023-05-10T12:46:40;19.30;45.90
15384;DHT22;7790;53.022;12.968;2023-05-10T12:50:41;19.40;45.90
15384;DHT22;7790;53.022;12.968;2023-05-10T12:54:42;19.40;45.90
15384;DHT22;7790;53.022;12.968;2023-05-10T12:58:43;19.40;45.90
15384;DHT22;7790;53.022;12.968;2023-05-10T13:02:48;19.40;46.00
15384;DHT22;7790;53.022;12.968;2023-05-10T13:06:49;19.40;46.00
15384;DHT22;7790;53.022;12.968;2023-05-10T13:10:50;19.30;45.90
15384;DHT22;7790;53.022;12.968;2023-05-10T13:14:51;19.40;46.10
15384;DHT22;7790;53.022;12.968;2023-05-10T13:18:52;19.40;46.10
15384;DHT22;7790;53.022;12.968;2023-05-10T13:22:53;19.30;46.20
15384;DHT22;7790;53.022;12.968;2023-05-10T13:26:54;19.40;46.20
15384;DHT22;7790;53.022;12.968;2023-05-10T13:30:55;19.30;46.30
15384;DHT22;7790;53.022;12.968;2023-05-10T13:34:56;19.40;46.30
15384;DHT22;7790;53.022;12.968;2023-05-10T13:38:57;19.30;46.30
15384;DHT22;7790;53.022;12.968;2023-05-10T13:42:58;19.40;46.40
15384;DHT22;7790;53.022;12.968;2023-05-10T13:46:59;19.40;46.30
15384;DHT22;7790;53.022;12.968;2023-05-10T13:51:00;19.40;46.30
15384;DHT22;7790;53.022;12.968;2023-05-10T13:55:01;19.30;46.30
15384;DHT22;7790;53.022;12.968;2023-05-10T13:59:02;19.30;46.30
15384;DHT22;7790;53.022;12.968;2023-05-10T14:03:03;19.30;46.40
15384;DHT22;7790;53.022;12.968;2023-05-10T14:07:05;19.40;46.50
15384;DHT22;7790;53.022;12.968;2023-05-10T14:11:06;19.40;46.50
15384;DHT22;7790;53.022;12.968;2023-05-10T14:15:08;19.40;46.60
15384;DHT22;7790;53.022;12.968;2023-05-10T14:19:11;19.30;46.60
15384;DHT22;7790;53.022;12.968;2023-05-10T14:23:12;19.40;46.60
15384;DHT22;7790;53.022;12.968;2023-05-10T14:27:13;19.40;46.60
15384;DHT22;7790;53.022;12.968;2023-05-10T14:31:14;19.30;46.60
15384;DHT22;7790;53.022;12.968;2023-05-10T14:35:17;19.30;46.80
15384;DHT22;7790;53.022;12.968;2023-05-10T14:39:18;19.30;46.70
15384;DHT22;7790;53.022;12.968;2023-05-10T14:43:19;19.30;46.80
15384;DHT22;7790;53.022;12.968;2023-05-10T14:47:20;19.30;46.90
15384;DHT22;7790;53.022;12.968;2023-05-10T14:51:20;19.30;46.90
15384;DHT22;7790;53.022;12.968;2023-05-10T14:55:22;19.30;46.90
15384;DHT22;7790;53.022;12.968;2023-05-10T14:59:23;19.30;46.90
15384;DHT22;7790;53.022;12.968;2023-05-10T15:03:24;19.30;46.90
15384;DHT22;7790;53.022;12.968;2023-05-10T15:07:25;19.30;47.00
15384;DHT22;7790;53.022;12.968;2023-05-10T15:11:26;19.30;47.00
15384;DHT22;7790;53.022;12.968;2023-05-10T15:15:27;19.30;47.00
15384;DHT22;7790;53.022;12.968;2023-05-10T15:19:28;19.30;46.90
15384;DHT22;7790;53.022;12.968;2023-05-10T15:23:30;19.30;47.00
15384;DHT22;7790;53.022;12.968;2023-05-10T15:27:31;19.30;47.10
15384;DHT22;7790;53.022;12.968;2023-05-10T15:31:31;19.40;47.00
15384;DHT22;7790;53.022;12.968;2023-05-10T15:35:35;19.40;47.00
15384;DHT22;7790;53.022;12.968;2023-05-10T15:39:38;19.40;46.90
15384;DHT22;7790;53.022;12.968;2023-05-10T15:43:40;19.50;46.90
15384;DHT22;7790;53.022;12.968;2023-05-10T15:47:42;19.50;46.90
15384;DHT22;7790;53.022;12.968;2023-05-10T15:51:42;19.50;46.90
15384;DHT22;7790;53.022;12.968;2023-05-10T15:55:43;19.50;47.00
15384;DHT22;7790;53.022;12.968;2023-05-10T15:59:44;19.50;47.00
15384;DHT22;7790;53.022;12.968;2023-05-10T16:03:48;19.50;47.10
15384;DHT22;7790;53.022;12.968;2023-05-10T16:07:49;19.50;47.10
15384;DHT22;7790;53.022;12.968;2023-05-10T16:11:50;19.50;47.10
15384;DHT22;7790;53.022;12.968;2023-05-10T16:15:52;19.50;47.10
15384;DHT22;7790;53.022;12.968;2023-05-10T16:19:53;19.50;47.20
15384;DHT22;7790;53.022;12.968;2023-05-10T16:23:54;19.50;47.20
15384;DHT22;7790;53.022;12.968;2023-05-10T16:27:55;19.50;47.20
15384;DHT22;7790;53.022;12.968;2023-05-10T16:31:56;19.50;47.20
15384;DHT22;7790;53.022;12.968;2023-05-10T16:35:56;19.50;47.70
15384;DHT22;7790;53.022;12.968;2023-05-10T16:39:57;19.50;47.30
15384;DHT22;7790;53.022;12.968;2023-05-10T16:43:58;19.50;47.30
15384;DHT22;7790;53.022;12.968;2023-05-10T16:48:00;19.50;47.40
15384;DHT22;7790;53.022;12.968;2023-05-10T16:52:01;19.50;47.40
15384;DHT22;7790;53.022;12.968;2023-05-10T16:56:02;19.50;47.40
15384;DHT22;7790;53.022;12.968;2023-05-10T17:00:04;19.50;47.50
15384;DHT22;7790;53.022;12.968;2023-05-10T17:04:05;19.40;47.50
15384;DHT22;7790;53.022;12.968;2023-05-10T17:08:06;19.40;47.50
15384;DHT22;7790;53.022;12.968;2023-05-10T17:12:08;19.40;47.60
15384;DHT22;7790;53.022;12.968;2023-05-10T17:16:09;19.40;47.60
15384;DHT22;7790;53.022;12.968;2023-05-10T17:20:10;19.40;47.60
15384;DHT22;7790;53.022;12.968;2023-05-10T17:24:12;19.40;47.70
15384;DHT22;7790;53.022;12.968;2023-05-10T17:28:13;19.40;47.80
15384;DHT22;7790;53.022;12.968;2023-05-10T17:32:13;19.40;47.70
15384;DHT22;7790;53.022;12.968;2023-05-10T17:36:14;19.40;47.80
15384;DHT22;7790;53.022;12.968;2023-05-10T17:40:15;19.40;47.80
15384;DHT22;7790;53.022;12.968;2023-05-10T17:44:16;19.40;47.80
15384;DHT22;7790;53.022;12.968;2023-05-10T17:48:17;19.40;47.80
15384;DHT22;7790;53.022;12.968;2023-05-10T17:52:18;19.40;47.80
15384;DHT22;7790;53.022;12.968;2023-05-10T17:56:19;19.40;47.90
15384;DHT22;7790;53.022;12.968;2023-05-10T18:00:21;19.50;47.90
15384;DHT22;7790;53.022;12.968;2023-05-10T18:04:22;19.50;47.80
15384;DHT22;7790;53.022;12.968;2023-05-10T18:08:23;19.40;47.80
15384;DHT22;7790;53.022;12.968;2023-05-10T18:12:26;19.40;48.00
15384;DHT22;7790;53.022;12.968;2023-05-10T18:16:27;19.40;47.90
15384;DHT22;7790;53.022;12.968;2023-05-10T18:20:29;19.40;48.00
15384;DHT22;7790;53.022;12.968;2023-05-10T18:24:30;19.40;48.10
15384;DHT22;7790;53.022;12.968;2023-05-10T18:28:30;19.40;48.00
15384;DHT22;7790;53.022;12.968;2023-05-10T18:32:31;19.40;48.00
15384;DHT22;7790;53.022;12.968;2023-05-10T18:36:32;19.40;48.00
15384;DHT22;7790;53.022;12.968;2023-05-10T18:40:34;19.40;48.00
15384;DHT22;7790;53.022;12.968;2023-05-10T18:44:35;19.50;48.10
15384;DHT22;7790;53.022;12.968;2023-05-10T18:48:36;19.60;48.10
15384;DHT22;7790;53.022;12.968;2023-05-10T18:52:38;19.60;48.00
15384;DHT22;7790;53.022;12.968;2023-05-10T18:56:39;19.50;48.10
15384;DHT22;7790;53.022;12.968;2023-05-10T19:00:44;19.50;48.10
15384;DHT22;7790;53.022;12.968;2023-05-10T19:04:45;19.50;48.10
15384;DHT22;7790;53.022;12.968;2023-05-10T19:08:46;19.50;48.10
15384;DHT22;7790;53.022;12.968;2023-05-10T19:12:46;19.50;48.10
15384;DHT22;7790;53.022;12.968;2023-05-10T19:16:47;19.50;48.00
15384;DHT22;7790;53.022;12.968;2023-05-10T19:20:48;19.50;48.00
15384;DHT22;7790;53.022;12.968;2023-05-10T19:24:49;19.50;48.00
15384;DHT22;7790;53.022;12.968;2023-05-10T19:28:50;19.50;48.00
15384;DHT22;7790;53.022;12.968;2023-05-10T19:32:51;19.50;48.10
15384;DHT22;7790;53.022;12.968;2023-05-10T19:36:53;19.50;48.00
15384;DHT22;7790;53.022;12.968;2023-05-10T19:40:54;19.40;48.00
15384;DHT22;7790;53.022;12.968;2023-05-10T19:44:58;19.40;48.00
15384;DHT22;7790;53.022;12.968;2023-05-10T19:48:59;19.40;47.90
15384;DHT22;7790;53.022;12.968;2023-05-10T19:53:00;19.40;47.90
15384;DHT22;7790;53.022;12.968;2023-05-10T19:57:01;19.40;47.90
15384;DHT22;7790;53.022;12.968;2023-05-10T20:01:02;19.40;47.90
15384;DHT22;7790;53.022;12.968;2023-05-10T20:05:05;19.50;48.00
15384;DHT22;7790;53.022;12.968;2023-05-10T20:09:06;19.50;48.00
15384;DHT22;7790;53.022;12.968;2023-05-10T20:13:08;19.40;47.90
15384;DHT22;7790;53.022;12.968;2023-05-10T20:17:09;19.40;47.90
15384;DHT22;7790;53.022;12.968;2023-05-10T20:21:09;19.40;47.90
15384;DHT22;7790;53.022;12.968;2023-05-10T20:25:11;19.40;47.90
15384;DHT22;7790;53.022;12.968;2023-05-10T20:29:12;19.40;47.90
15384;DHT22;7790;53.022;12.968;2023-05-10T20:33:12;19.40;47.90
15384;DHT22;7790;53.022;12.968;2023-05-10T20:37:15;19.50;48.10
15384;DHT22;7790;53.022;12.968;2023-05-10T20:41:17;19.40;48.00
15384;DHT22;7790;53.022;12.968;2023-05-10T20:45:18;19.40;48.00
15384;DHT22;7790;53.022;12.968;2023-05-10T20:49:19;19.40;48.10
15384;DHT22;7790;53.022;12.968;2023-05-10T20:53:20;19.40;48.10
15384;DHT22;7790;53.022;12.968;2023-05-10T20:57:21;19.40;48.10
15384;DHT22;7790;53.022;12.968;2023-05-10T21:01:22;19.40;48.00
15384;DHT22;7790;53.022;12.968;2023-05-10T21:05:23;19.40;48.00
15384;DHT22;7790;53.022;12.968;2023-05-10T21:09:24;19.40;48.00
15384;DHT22;7790;53.022;12.968;2023-05-10T21:13:25;19.40;48.00
15384;DHT22;7790;53.022;12.968;2023-05-10T21:17:26;19.40;48.10
15384;DHT22;7790;53.022;12.968;2023-05-10T21:21:27;19.40;48.20
15384;DHT22;7790;53.022;12.968;2023-05-10T21:25:28;19.40;48.20
15384;DHT22;7790;53.022;12.968;2023-05-10T21:29:29;19.40;48.30
15384;DHT22;7790;53.022;12.968;2023-05-10T21:33:30;19.40;48.30
15384;DHT22;7790;53.022;12.968;2023-05-10T21:37:34;19.40;48.40
15384;DHT22;7790;53.022;12.968;2023-05-10T21:41:36;19.40;48.40
15384;DHT22;7790;53.022;12.968;2023-05-10T21:45:37;19.40;48.40
15384;DHT22;7790;53.022;12.968;2023-05-10T21:49:38;19.40;48.40
15384;DHT22;7790;53.022;12.968;2023-05-10T21:53:39;19.40;48.40
15384;DHT22;7790;53.022;12.968;2023-05-10T21:57:40;19.40;48.40
15384;DHT22;7790;53.022;12.968;2023-05-10T22:01:41;19.30;48.40
15384;DHT22;7790;53.022;12.968;2023-05-10T22:05:43;19.40;48.50
15384;DHT22;7790;53.022;12.968;2023-05-10T22:09:44;19.30;48.30
15384;DHT22;7790;53.022;12.968;2023-05-10T22:13:45;19.30;48.40
15384;DHT22;7790;53.022;12.968;2023-05-10T22:17:46;19.30;48.40
15384;DHT22;7790;53.022;12.968;2023-05-10T22:21:46;19.40;48.40
15384;DHT22;7790;53.022;12.968;2023-05-10T22:25:47;19.40;48.60
15384;DHT22;7790;53.022;12.968;2023-05-10T22:29:48;19.40;48.60
15384;DHT22;7790;53.022;12.968;2023-05-10T22:33:49;19.40;48.60
15384;DHT22;7790;53.022;12.968;2023-05-10T22:37:50;19.30;48.60
15384;DHT22;7790;53.022;12.968;2023-05-10T22:41:51;19.40;48.80
15384;DHT22;7790;53.022;12.968;2023-05-10T22:45:51;19.30;48.80
15384;DHT22;7790;53.022;12.968;2023-05-10T22:49:52;19.30;48.80
15384;DHT22;7790;53.022;12.968;2023-05-10T22:53:54;19.40;49.00
15384;DHT22;7790;53.022;12.968;2023-05-10T22:57:55;19.30;48.50
15384;DHT22;7790;53.022;12.968;2023-05-10T23:01:56;19.40;48.70
15384;DHT22;7790;53.022;12.968;2023-05-10T23:05:57;19.40;48.80
15384;DHT22;7790;53.022;12.968;2023-05-10T23:09:58;19.30;48.80
15384;DHT22;7790;53.022;12.968;2023-05-10T23:13:59;19.30;48.90
15384;DHT22;7790;53.022;12.968;2023-05-10T23:18:00;19.40;49.00
15384;DHT22;7790;53.022;12.968;2023-05-10T23:22:00;19.30;49.00
15384;DHT22;7790;53.022;12.968;2023-05-10T23:26:01;19.30;49.00
15384;DHT22;7790;53.022;12.968;2023-05-10T23:30:04;19.30;48.90
15384;DHT22;7790;53.022;12.968;2023-05-10T23:34:05;19.30;48.80
15384;DHT22;7790;53.022;12.968;2023-05-10T23:38:06;19.30;48.80
15384;DHT22;7790;53.022;12.968;2023-05-10T23:42:07;19.30;49.20
15384;DHT22;7790;53.022;12.968;2023-05-10T23:46:07;19.30;48.80
15384;DHT22;7790;53.022;12.968;2023-05-10T23:50:09;19.30;48.90
15384;DHT22;7790;53.022;12.968;2023-05-10T23:54:10;19.30;48.90
15384;DHT22;7790;53.022;12.968;2023-05-10T23:58:11;19.30;49.10
